aviador You're here:

KATL Decoded Metar

ATLANTA in GA, USA
Report Time2017-07-26 05:52:00
UTC Time2017-07-26 06:32:04
Flight Rules vfr VFR
Wind210° at 04 kt
W.Decomp.*RWY 26: 2.8 kt HW 2.8 kt LCW
RWY 27: 2.3 kt HW 3.3 kt LCW
RWY 28: 1.7 kt HW 3.6 kt LCW
W.Rank210° ranks 19
Current wind is below 210° avg. (6.6)
Visibility9999 m
Phenomena:N/A
Clouds:Few 200 Hf
Few 250 Hf
Expected CloudBase > 800 ft AGL from Temp-Dew spread
CeilingNone
Temp24°C (ISA +11)
Dew Point22°C (89% RH)
QNH1019 hPa
Density Alt2,388 ft
Elevation971 ft
Report Wrong Elevation
Raw Report
KATL 260552Z 21004KT 10SM FEW200 FEW250 24/22 A3010 RMK AO2 SLP182
T02440222 10272 20244 56011=

Extra information for KATL:More info

Metar Taf Metar & Taf Last 4 Metars F.Rules Stats Wind Profile Meteogram Temp Stats Airport Information Weather charts Add Link Nearby VenuesMetar ALERT Operation Metar Decoded Social comments

AIRNAV info for KATL